Time;durP1;ratioP1;P1;durP2;ratioP2;P2;SDS_P1;SDS_P2;PMS_P1;PMS_P2;Temp;Humidity;BMP_temperature;BMP_pressure;BME280_temperature;BME280_humidity;BME280_pressure;Samples;Min_cycle;Max_cycle;Signal;HPM_P1;HPM_P2
2021/12/24 00:00:32;;;;;;;0.43;0.33;;;;;;;;;;4955042;29;20227;-73
2021/12/24 00:03:02;;;;;;;0.53;0.53;;;;;;;;;;4950384;29;20206;-74
2021/12/24 00:05:31;;;;;;;0.60;0.40;;;;;;;;;;4948385;28;20238;-73
2021/12/24 00:08:00;;;;;;;1.30;0.57;;;;;;;;;;4953837;28;20631;-73
2021/12/24 00:10:31;;;;;;;0.37;0.23;;;;;;;;;;4954046;28;20203;-73
2021/12/24 00:13:03;;;;;;;0.30;0.30;;;;;;;;;;4955728;29;20214;-73
2021/12/24 00:16:05;;;;;;;0.27;0.27;;;;;;;;;;4955082;29;20268;-73
2021/12/24 00:18:46;;;;;;;0.63;0.40;;;;;;;;;;4955552;28;20230;-73
2021/12/24 00:35:11;;;;;;;0.60;0.47;;;;;;;;;;4955469;29;20670;-74
2021/12/24 00:37:40;;;;;;;1.13;0.63;;;;;;;;;;4955299;28;20226;-73
2021/12/24 00:40:14;;;;;;;1.10;0.60;;;;;;;;;;4954586;28;20218;-74
2021/12/24 00:42:45;;;;;;;0.33;0.33;;;;;;;;;;4953903;29;20661;-74
2021/12/24 00:45:14;;;;;;;0.43;0.37;;;;;;;;;;4955592;29;20795;-74
2021/12/24 00:47:42;;;;;;;1.03;0.43;;;;;;;;;;4953958;29;20226;-73
2021/12/24 00:50:16;;;;;;;0.57;0.57;;;;;;;;;;4951138;28;20646;-73
2021/12/24 00:52:48;;;;;;;0.43;0.30;;;;;;;;;;4955163;29;20265;-73
2021/12/24 00:55:17;;;;;;;0.63;0.50;;;;;;;;;;4955505;28;20692;-74
2021/12/24 00:57:47;;;;;;;0.83;0.53;;;;;;;;;;4954413;29;20223;-73
2021/12/24 01:00:19;;;;;;;0.83;0.50;;;;;;;;;;4954853;29;20674;-73
2021/12/24 01:02:48;;;;;;;0.57;0.37;;;;;;;;;;4954269;29;20205;-73
2021/12/24 01:05:19;;;;;;;1.00;0.53;;;;;;;;;;4955113;29;20207;-73
2021/12/24 01:07:49;;;;;;;0.50;0.40;;;;;;;;;;4954442;29;20230;-73
2021/12/24 01:10:18;;;;;;;0.40;0.33;;;;;;;;;;4952274;28;20682;-74
2021/12/24 01:12:47;;;;;;;0.57;0.33;;;;;;;;;;4953279;29;20274;-73
2021/12/24 01:15:15;;;;;;;0.50;0.40;;;;;;;;;;4949453;29;20203;-74
2021/12/24 01:17:50;;;;;;;0.30;0.30;;;;;;;;;;4953795;29;20226;-73
2021/12/24 01:20:26;;;;;;;0.40;0.20;;;;;;;;;;4946271;29;20244;-74
2021/12/24 01:23:27;;;;;;;0.83;0.50;;;;;;;;;;4955186;29;20198;-73
2021/12/24 01:25:59;;;;;;;0.50;0.40;;;;;;;;;;4954443;29;20272;-73
2021/12/24 01:28:40;;;;;;;0.20;0.13;;;;;;;;;;4954809;28;20230;-74
2021/12/24 01:39:51;;;;;;;0.00;0.00;;;;;;;;;;4943880;29;20249;-74
2021/12/24 01:45:14;;;;;;;0.00;0.00;;;;;;;;;;4949005;29;20207;-73
2021/12/24 01:47:42;;;;;;;0.00;0.00;;;;;;;;;;4945655;29;20317;-74
2021/12/24 01:50:11;;;;;;;0.00;0.00;;;;;;;;;;4942876;29;20211;-73
2021/12/24 01:52:41;;;;;;;0.00;0.00;;;;;;;;;;4937962;29;20262;-74
2021/12/24 01:55:10;;;;;;;0.00;0.00;;;;;;;;;;4957633;29;20221;-73
2021/12/24 01:57:38;;;;;;;0.00;0.00;;;;;;;;;;4958168;28;20227;-73
2021/12/24 02:00:08;;;;;;;0.00;0.00;;;;;;;;;;4957461;29;20671;-73
2021/12/24 02:02:36;;;;;;;0.00;0.00;;;;;;;;;;4949167;29;20721;-74
2021/12/24 02:05:06;;;;;;;0.00;0.00;;;;;;;;;;4950325;29;20211;-73
2021/12/24 02:07:34;;;;;;;0.00;0.00;;;;;;;;;;4939074;29;20624;-73
2021/12/24 02:10:05;;;;;;;0.00;0.00;;;;;;;;;;4947743;29;20211;-73
2021/12/24 02:12:34;;;;;;;0.00;0.00;;;;;;;;;;4956192;28;20741;-74
2021/12/24 02:15:04;;;;;;;0.00;0.00;;;;;;;;;;4956766;29;20218;-73
2021/12/24 02:28:43;;;;;;;0.00;0.00;;;;;;;;;;4957363;29;20206;-73
2021/12/24 02:31:13;;;;;;;0.00;0.00;;;;;;;;;;4957177;29;20194;-74
2021/12/24 02:33:42;;;;;;;0.00;0.00;;;;;;;;;;4957492;29;20202;-74
2021/12/24 02:36:12;;;;;;;0.00;0.00;;;;;;;;;;4957440;29;20230;-74
2021/12/24 02:38:41;;;;;;;0.00;0.00;;;;;;;;;;4956035;29;20249;-73
2021/12/24 02:41:10;;;;;;;0.00;0.00;;;;;;;;;;4957573;29;20222;-73
2021/12/24 02:43:39;;;;;;;0.00;0.00;;;;;;;;;;4955960;29;20210;-74
2021/12/24 02:46:11;;;;;;;0.00;0.00;;;;;;;;;;4951377;29;20725;-74
2021/12/24 02:49:04;;;;;;;0.00;0.00;;;;;;;;;;4956936;28;20203;-73
2021/12/24 02:54:21;;;;;;;0.00;0.00;;;;;;;;;;4951346;29;20259;-74
2021/12/24 02:56:52;;;;;;;0.00;0.00;;;;;;;;;;4954699;29;20227;-74
2021/12/24 02:59:25;;;;;;;0.00;0.00;;;;;;;;;;4956784;29;20658;-74
2021/12/24 03:01:55;;;;;;;0.20;0.03;;;;;;;;;;4943185;29;20227;-74
2021/12/24 03:04:23;;;;;;;0.20;0.20;;;;;;;;;;4955546;28;20246;-74
2021/12/24 03:06:54;;;;;;;0.30;0.20;;;;;;;;;;4956082;28;20226;-74
2021/12/24 03:09:24;;;;;;;0.20;0.20;;;;;;;;;;4957253;29;20198;-73
2021/12/24 03:11:54;;;;;;;0.10;0.10;;;;;;;;;;4953171;28;20195;-74
2021/12/24 03:14:23;;;;;;;0.63;0.43;;;;;;;;;;4949531;29;20242;-74
2021/12/24 03:16:57;;;;;;;0.63;0.40;;;;;;;;;;4954257;29;20223;-74
2021/12/24 03:19:30;;;;;;;0.63;0.43;;;;;;;;;;4956509;28;20202;-73
2021/12/24 03:22:11;;;;;;;1.03;0.43;;;;;;;;;;4937836;29;20234;-74
2021/12/24 03:24:40;;;;;;;0.67;0.60;;;;;;;;;;4947179;29;20191;-74
2021/12/24 03:27:09;;;;;;;0.90;0.50;;;;;;;;;;4956640;29;20285;-73
2021/12/24 03:29:38;;;;;;;0.93;0.67;;;;;;;;;;4956204;29;20250;-73
2021/12/24 03:32:07;;;;;;;0.77;0.50;;;;;;;;;;4952445;29;20547;-74
2021/12/24 03:34:35;;;;;;;0.93;0.53;;;;;;;;;;4956295;28;20266;-74
2021/12/24 03:37:06;;;;;;;0.53;0.43;;;;;;;;;;4937309;29;20645;-74
2021/12/24 03:39:34;;;;;;;0.63;0.50;;;;;;;;;;4945964;29;20203;-74
2021/12/24 03:42:03;;;;;;;1.30;0.67;;;;;;;;;;4956174;29;20227;-74
2021/12/24 03:44:36;;;;;;;1.00;0.63;;;;;;;;;;4952732;29;20609;-74
2021/12/24 03:47:10;;;;;;;0.83;0.50;;;;;;;;;;4956335;29;20646;-74
2021/12/24 03:49:45;;;;;;;0.93;0.37;;;;;;;;;;4955889;29;20203;-74
2021/12/24 03:52:33;;;;;;;1.10;0.73;;;;;;;;;;4940204;28;20545;-74
2021/12/24 03:55:01;;;;;;;0.97;0.73;;;;;;;;;;4952908;29;20218;-75
2021/12/24 03:57:31;;;;;;;0.53;0.53;;;;;;;;;;4954863;29;20698;-74
2021/12/24 04:00:01;;;;;;;1.00;0.67;;;;;;;;;;4946538;29;20214;-73
2021/12/24 04:02:29;;;;;;;1.30;0.77;;;;;;;;;;4955016;29;20297;-72
2021/12/24 04:04:58;;;;;;;0.87;0.67;;;;;;;;;;4955693;28;20297;-73
2021/12/24 04:07:27;;;;;;;1.33;0.80;;;;;;;;;;4955770;29;20215;-73
2021/12/24 04:10:02;;;;;;;0.77;0.67;;;;;;;;;;4955373;29;20669;-74
2021/12/24 04:12:30;;;;;;;1.50;0.87;;;;;;;;;;4940668;29;20343;-73
2021/12/24 04:14:59;;;;;;;1.50;1.03;;;;;;;;;;4955156;28;20207;-74
2021/12/24 04:17:31;;;;;;;1.23;1.00;;;;;;;;;;4953003;28;20233;-74
2021/12/24 04:25:32;;;;;;;1.33;0.93;;;;;;;;;;4948930;29;20253;-74
2021/12/24 04:28:01;;;;;;;1.17;0.93;;;;;;;;;;4952455;28;20693;-74
2021/12/24 04:30:35;;;;;;;1.20;1.03;;;;;;;;;;4946049;29;20539;-73
2021/12/24 04:33:10;;;;;;;1.10;0.77;;;;;;;;;;4954901;29;20646;-74
2021/12/24 04:35:43;;;;;;;1.23;0.93;;;;;;;;;;4946528;29;20620;-74
2021/12/24 04:52:41;;;;;;;1.37;1.27;;;;;;;;;;4954328;29;20206;-73
2021/12/24 05:03:32;;;;;;;1.70;1.00;;;;;;;;;;4955439;29;20304;-73
2021/12/24 05:06:29;;;;;;;1.60;1.13;;;;;;;;;;4948154;29;20215;-74
2021/12/24 05:09:05;;;;;;;1.20;0.87;;;;;;;;;;4945642;29;20199;-73
2021/12/24 05:11:35;;;;;;;1.20;0.93;;;;;;;;;;4951927;29;20253;-73
2021/12/24 05:14:03;;;;;;;1.60;0.90;;;;;;;;;;4949122;28;20203;-73
2021/12/24 05:16:43;;;;;;;1.30;1.07;;;;;;;;;;4952241;29;20229;-75
2021/12/24 05:21:57;;;;;;;1.30;0.83;;;;;;;;;;4954543;29;20265;-75
2021/12/24 05:24:29;;;;;;;1.53;0.73;;;;;;;;;;4954595;29;20215;-73
2021/12/24 05:27:01;;;;;;;1.17;0.87;;;;;;;;;;4953795;28;20697;-74
2021/12/24 05:29:30;;;;;;;1.30;0.83;;;;;;;;;;4958105;29;22227;-74
2021/12/24 05:31:58;;;;;;;1.20;0.67;;;;;;;;;;4958970;29;20265;-73
2021/12/24 05:34:27;;;;;;;1.00;0.73;;;;;;;;;;4958351;29;20209;-73
2021/12/24 05:36:55;;;;;;;0.97;0.63;;;;;;;;;;4958655;29;20758;-73
2021/12/24 05:39:23;;;;;;;0.93;0.67;;;;;;;;;;4958126;28;20608;-73
2021/12/24 05:41:52;;;;;;;0.77;0.57;;;;;;;;;;4944389;29;20554;-74
2021/12/24 05:44:22;;;;;;;0.87;0.77;;;;;;;;;;4957552;29;20659;-74
2021/12/24 05:46:50;;;;;;;1.27;0.73;;;;;;;;;;4954263;29;20231;-74
2021/12/24 05:49:18;;;;;;;0.73;0.53;;;;;;;;;;4957161;29;20206;-73
2021/12/24 05:51:47;;;;;;;0.73;0.47;;;;;;;;;;4957937;29;20214;-74
2021/12/24 05:54:15;;;;;;;1.00;0.53;;;;;;;;;;4958598;28;20199;-74
2021/12/24 05:56:44;;;;;;;0.50;0.43;;;;;;;;;;4958232;29;20226;-73
2021/12/24 05:59:13;;;;;;;1.27;0.67;;;;;;;;;;4958064;29;20596;-74
2021/12/24 06:01:43;;;;;;;0.83;0.53;;;;;;;;;;4956965;29;20206;-74
2021/12/24 06:04:11;;;;;;;0.43;0.40;;;;;;;;;;4958344;29;20254;-73
2021/12/24 06:06:40;;;;;;;0.30;0.20;;;;;;;;;;4957616;29;20222;-73
2021/12/24 06:09:09;;;;;;;0.63;0.53;;;;;;;;;;4958013;29;20210;-73
2021/12/24 06:11:37;;;;;;;0.93;0.50;;;;;;;;;;4949390;28;20257;-74
2021/12/24 06:14:10;;;;;;;0.63;0.43;;;;;;;;;;4957228;29;20206;-73
2021/12/24 06:16:48;;;;;;;0.77;0.60;;;;;;;;;;4952705;29;20686;-75
2021/12/24 06:19:18;;;;;;;0.57;0.50;;;;;;;;;;4946087;29;20205;-74
2021/12/24 06:21:47;;;;;;;0.63;0.47;;;;;;;;;;4947530;29;20277;-74
2021/12/24 06:24:17;;;;;;;0.40;0.40;;;;;;;;;;4956877;28;20230;-74
2021/12/24 06:26:46;;;;;;;0.57;0.43;;;;;;;;;;4958147;28;20222;-73
2021/12/24 06:29:14;;;;;;;0.67;0.53;;;;;;;;;;4952287;29;20210;-74
2021/12/24 06:31:43;;;;;;;0.53;0.33;;;;;;;;;;4954619;28;20662;-73
2021/12/24 06:34:12;;;;;;;0.70;0.43;;;;;;;;;;4957305;29;20199;-73
2021/12/24 06:36:44;;;;;;;0.37;0.37;;;;;;;;;;4957572;28;20281;-73
2021/12/24 06:39:13;;;;;;;0.43;0.43;;;;;;;;;;4956377;28;20253;-74
2021/12/24 06:41:41;;;;;;;0.87;0.43;;;;;;;;;;4957058;28;20273;-74
2021/12/24 06:44:11;;;;;;;0.77;0.43;;;;;;;;;;4957379;29;20222;-74
2021/12/24 06:46:41;;;;;;;0.63;0.50;;;;;;;;;;4951240;29;20222;-74
2021/12/24 06:49:10;;;;;;;1.07;0.70;;;;;;;;;;4952862;29;22039;-73
2021/12/24 06:51:38;;;;;;;0.83;0.60;;;;;;;;;;4957142;29;20206;-73
2021/12/24 06:54:10;;;;;;;0.57;0.43;;;;;;;;;;4940206;29;20207;-75
2021/12/24 06:56:44;;;;;;;0.60;0.50;;;;;;;;;;4938279;29;20567;-74
2021/12/24 06:59:12;;;;;;;0.67;0.47;;;;;;;;;;4954791;29;20202;-74
2021/12/24 07:01:41;;;;;;;0.47;0.40;;;;;;;;;;4954201;29;20206;-74
2021/12/24 07:04:09;;;;;;;0.47;0.40;;;;;;;;;;4956287;29;20222;-73
2021/12/24 07:06:43;;;;;;;0.40;0.40;;;;;;;;;;4957333;28;20254;-73
2021/12/24 07:09:13;;;;;;;0.77;0.67;;;;;;;;;;4957038;28;20199;-74
2021/12/24 07:11:42;;;;;;;0.90;0.63;;;;;;;;;;4956163;29;20206;-74
2021/12/24 07:14:10;;;;;;;1.20;0.73;;;;;;;;;;4957089;28;20257;-74
2021/12/24 07:16:40;;;;;;;0.63;0.57;;;;;;;;;;4954819;29;20309;-74
2021/12/24 07:19:08;;;;;;;1.13;0.40;;;;;;;;;;4954689;29;20619;-73
2021/12/24 07:21:38;;;;;;;0.83;0.60;;;;;;;;;;4953729;29;20210;-73
2021/12/24 07:24:07;;;;;;;1.40;0.87;;;;;;;;;;4954807;29;20215;-74
2021/12/24 07:26:37;;;;;;;1.00;0.77;;;;;;;;;;4955452;29;20694;-73
2021/12/24 07:29:05;;;;;;;0.50;0.43;;;;;;;;;;4956548;29;20249;-75
2021/12/24 07:31:34;;;;;;;0.83;0.70;;;;;;;;;;4956632;28;20206;-74
2021/12/24 07:34:02;;;;;;;0.60;0.57;;;;;;;;;;4956535;28;20199;-73
2021/12/24 07:36:31;;;;;;;1.07;0.77;;;;;;;;;;4950732;29;20210;-73
2021/12/24 07:38:59;;;;;;;1.00;0.53;;;;;;;;;;4945428;29;20613;-73
2021/12/24 07:41:28;;;;;;;0.83;0.73;;;;;;;;;;4955543;28;20658;-74
2021/12/24 07:43:57;;;;;;;0.87;0.83;;;;;;;;;;4956060;29;20691;-74
2021/12/24 07:46:33;;;;;;;0.83;0.73;;;;;;;;;;4942912;28;20202;-74
2021/12/24 07:49:17;;;;;;;1.10;0.77;;;;;;;;;;4954356;29;20209;-73
2021/12/24 07:52:03;;;;;;;1.13;0.93;;;;;;;;;;4954513;28;20629;-74
2021/12/24 07:54:32;;;;;;;1.30;0.73;;;;;;;;;;4955985;29;20206;-73
2021/12/24 07:57:01;;;;;;;0.67;0.67;;;;;;;;;;4955872;29;20230;-73
2021/12/24 07:59:39;;;;;;;1.30;0.63;;;;;;;;;;4955967;29;20234;-74
2021/12/24 08:02:11;;;;;;;0.77;0.77;;;;;;;;;;4948578;28;20215;-73
2021/12/24 08:04:40;;;;;;;0.73;0.57;;;;;;;;;;4954306;29;20268;-72
2021/12/24 08:07:09;;;;;;;0.70;0.53;;;;;;;;;;4954399;28;20633;-73
2021/12/24 08:09:38;;;;;;;0.60;0.50;;;;;;;;;;4955579;28;20218;-73
2021/12/24 08:12:07;;;;;;;0.73;0.63;;;;;;;;;;4954600;29;20253;-72
2021/12/24 08:14:36;;;;;;;1.13;0.87;;;;;;;;;;4952367;29;20214;-73
2021/12/24 08:17:06;;;;;;;0.97;0.77;;;;;;;;;;4954919;28;20222;-74
2021/12/24 08:19:35;;;;;;;0.57;0.57;;;;;;;;;;4955399;29;20546;-73
2021/12/24 08:22:04;;;;;;;1.03;0.83;;;;;;;;;;4939418;28;20718;-74
2021/12/24 08:24:33;;;;;;;0.70;0.53;;;;;;;;;;4945726;29;20215;-73
2021/12/24 08:27:01;;;;;;;0.97;0.73;;;;;;;;;;4952692;28;20273;-74
2021/12/24 08:29:30;;;;;;;1.03;0.83;;;;;;;;;;4955439;29;20202;-73
2021/12/24 08:31:58;;;;;;;1.60;0.93;;;;;;;;;;4955395;29;20270;-74
2021/12/24 08:34:28;;;;;;;0.73;0.73;;;;;;;;;;4955611;29;20654;-73
2021/12/24 08:36:57;;;;;;;1.30;0.57;;;;;;;;;;4955519;29;20238;-73
2021/12/24 08:39:25;;;;;;;0.83;0.77;;;;;;;;;;4953915;29;20206;-74
2021/12/24 08:41:54;;;;;;;0.87;0.70;;;;;;;;;;4953235;29;20659;-75
2021/12/24 08:44:23;;;;;;;0.77;0.77;;;;;;;;;;4954446;28;20234;-72
2021/12/24 08:46:52;;;;;;;0.90;0.83;;;;;;;;;;4951344;28;20226;-73
2021/12/24 08:49:21;;;;;;;0.93;0.93;;;;;;;;;;4951987;29;20293;-74
2021/12/24 08:51:51;;;;;;;1.50;0.93;;;;;;;;;;4953278;28;20221;-74
2021/12/24 08:54:21;;;;;;;1.43;1.00;;;;;;;;;;4955762;28;20221;-74
2021/12/24 08:56:52;;;;;;;1.50;0.83;;;;;;;;;;4954548;29;20226;-74
2021/12/24 08:59:23;;;;;;;1.23;0.97;;;;;;;;;;4955069;29;20737;-74
2021/12/24 09:01:51;;;;;;;1.50;1.03;;;;;;;;;;4954156;29;20215;-74
2021/12/24 09:04:20;;;;;;;1.27;1.17;;;;;;;;;;4954995;29;20757;-74
2021/12/24 09:06:48;;;;;;;1.07;0.87;;;;;;;;;;4955456;29;20223;-74
2021/12/24 09:09:18;;;;;;;1.03;0.77;;;;;;;;;;4954942;29;20253;-74
2021/12/24 09:11:47;;;;;;;1.30;1.20;;;;;;;;;;4955234;28;20222;-75
2021/12/24 09:14:17;;;;;;;1.50;0.87;;;;;;;;;;4953494;28;20215;-75
2021/12/24 09:16:46;;;;;;;1.23;0.93;;;;;;;;;;4954833;29;20222;-74
2021/12/24 09:19:19;;;;;;;0.97;0.77;;;;;;;;;;4955059;28;20210;-75
2021/12/24 09:21:47;;;;;;;0.90;0.87;;;;;;;;;;4954406;28;20206;-76
2021/12/24 09:24:19;;;;;;;0.93;0.77;;;;;;;;;;4955055;29;20698;-74
2021/12/24 09:26:47;;;;;;;1.07;0.97;;;;;;;;;;4953694;29;20273;-75
2021/12/24 09:29:15;;;;;;;0.90;0.87;;;;;;;;;;4954967;29;20663;-75
2021/12/24 09:31:44;;;;;;;1.30;0.83;;;;;;;;;;4939008;29;20215;-74
2021/12/24 09:34:13;;;;;;;0.97;0.73;;;;;;;;;;4939766;29;20210;-74
2021/12/24 09:36:42;;;;;;;0.87;0.83;;;;;;;;;;4955006;28;20218;-73
2021/12/24 09:39:11;;;;;;;0.57;0.57;;;;;;;;;;4945451;29;20199;-74
2021/12/24 09:41:42;;;;;;;1.03;0.87;;;;;;;;;;4942252;29;20211;-74
2021/12/24 09:44:11;;;;;;;0.87;0.73;;;;;;;;;;4954618;29;20210;-73
2021/12/24 09:46:42;;;;;;;2.03;0.93;;;;;;;;;;4954068;29;20566;-76
2021/12/24 09:49:11;;;;;;;1.03;0.93;;;;;;;;;;4944160;29;20730;-73
2021/12/24 09:51:41;;;;;;;0.93;0.77;;;;;;;;;;4954464;29;20203;-74
2021/12/24 09:54:11;;;;;;;2.07;1.07;;;;;;;;;;4954691;29;20620;-74
2021/12/24 09:56:39;;;;;;;1.03;0.73;;;;;;;;;;4954152;29;20571;-73
2021/12/24 09:59:09;;;;;;;0.83;0.77;;;;;;;;;;4945115;29;20254;-73
2021/12/24 10:01:41;;;;;;;1.23;0.67;;;;;;;;;;4954458;29;20286;-75
2021/12/24 10:04:12;;;;;;;0.83;0.83;;;;;;;;;;4944494;29;20724;-73
2021/12/24 10:06:49;;;;;;;0.93;0.67;;;;;;;;;;4940021;29;20229;-73
2021/12/24 10:09:18;;;;;;;1.40;0.83;;;;;;;;;;4954341;29;20206;-73
2021/12/24 10:11:49;;;;;;;1.90;0.73;;;;;;;;;;4950493;28;20259;-73
2021/12/24 10:14:23;;;;;;;0.53;0.53;;;;;;;;;;4953189;28;20230;-72
2021/12/24 10:16:54;;;;;;;1.70;0.83;;;;;;;;;;4939202;29;20313;-75
2021/12/24 10:19:22;;;;;;;1.73;1.00;;;;;;;;;;4952941;29;20209;-73
2021/12/24 10:21:59;;;;;;;1.27;0.83;;;;;;;;;;4954030;29;20234;-73
2021/12/24 10:24:28;;;;;;;0.83;0.67;;;;;;;;;;4952514;28;20213;-73
2021/12/24 10:26:57;;;;;;;1.03;0.93;;;;;;;;;;4943018;28;20760;-73
2021/12/24 10:29:31;;;;;;;0.73;0.73;;;;;;;;;;4947758;29;20262;-73
2021/12/24 10:32:01;;;;;;;0.77;0.73;;;;;;;;;;4957834;29;20261;-74
2021/12/24 10:34:30;;;;;;;1.03;0.93;;;;;;;;;;4943586;29;20706;-73
2021/12/24 10:37:01;;;;;;;0.67;0.67;;;;;;;;;;4952733;28;20225;-73
2021/12/24 10:39:31;;;;;;;1.27;1.10;;;;;;;;;;4944781;29;20206;-73
2021/12/24 10:42:01;;;;;;;0.93;0.90;;;;;;;;;;4947054;29;20258;-73
2021/12/24 10:44:32;;;;;;;0.77;0.77;;;;;;;;;;4942892;28;20242;-74
2021/12/24 10:47:03;;;;;;;1.00;0.83;;;;;;;;;;4955696;29;20227;-75
2021/12/24 10:49:56;;;;;;;2.00;0.97;;;;;;;;;;4956812;29;20290;-73
2021/12/24 10:55:14;;;;;;;1.90;0.90;;;;;;;;;;4956955;28;20348;-73
2021/12/24 10:57:43;;;;;;;1.93;0.87;;;;;;;;;;4955128;28;20222;-72
2021/12/24 11:00:21;;;;;;;0.97;0.87;;;;;;;;;;4956990;28;20663;-73
2021/12/24 11:02:51;;;;;;;1.03;0.93;;;;;;;;;;4956759;28;20557;-74
2021/12/24 11:05:27;;;;;;;1.30;1.03;;;;;;;;;;4956921;29;20234;-72
2021/12/24 11:07:57;;;;;;;1.30;1.07;;;;;;;;;;4946608;28;20308;-73
2021/12/24 11:10:26;;;;;;;1.50;1.27;;;;;;;;;;4943889;29;20664;-72
2021/12/24 11:12:56;;;;;;;0.93;0.93;;;;;;;;;;4956322;28;20215;-72
2021/12/24 11:15:27;;;;;;;0.97;0.73;;;;;;;;;;4954027;28;20674;-73
2021/12/24 11:17:56;;;;;;;1.33;1.03;;;;;;;;;;4956402;29;20667;-74
2021/12/24 11:20:25;;;;;;;1.50;1.10;;;;;;;;;;4956680;29;20261;-72
2021/12/24 11:22:55;;;;;;;1.50;1.40;;;;;;;;;;4949622;28;20210;-72
2021/12/24 11:25:27;;;;;;;1.20;1.07;;;;;;;;;;4933150;28;20230;-73
2021/12/24 11:27:59;;;;;;;2.00;1.07;;;;;;;;;;4950197;28;20261;-73
2021/12/24 11:30:33;;;;;;;1.60;1.07;;;;;;;;;;4954019;28;20203;-73
2021/12/24 11:33:02;;;;;;;2.37;1.30;;;;;;;;;;4950808;28;20679;-73
2021/12/24 11:35:33;;;;;;;2.37;1.23;;;;;;;;;;4945351;29;20199;-73
2021/12/24 11:38:07;;;;;;;1.93;1.17;;;;;;;;;;4942056;28;20227;-73
2021/12/24 11:40:38;;;;;;;1.27;0.83;;;;;;;;;;4951800;29;20197;-74
2021/12/24 11:43:15;;;;;;;1.50;1.03;;;;;;;;;;4952040;28;20302;-73
2021/12/24 11:45:51;;;;;;;1.17;0.90;;;;;;;;;;4950752;28;20226;-74
2021/12/24 11:48:24;;;;;;;1.37;1.13;;;;;;;;;;4955467;29;20222;-74
2021/12/24 11:50:54;;;;;;;1.70;1.40;;;;;;;;;;4953023;29;20211;-72
2021/12/24 11:53:33;;;;;;;1.40;1.30;;;;;;;;;;4952917;29;20206;-73
2021/12/24 11:56:07;;;;;;;1.60;1.10;;;;;;;;;;4948485;29;20210;-75
2021/12/24 11:58:43;;;;;;;1.47;1.13;;;;;;;;;;4954198;29;20241;-73
2021/12/24 12:01:16;;;;;;;1.30;1.10;;;;;;;;;;4936318;29;20250;-72
2021/12/24 12:03:52;;;;;;;1.60;1.23;;;;;;;;;;4948428;29;20574;-73
2021/12/24 12:06:34;;;;;;;1.60;0.93;;;;;;;;;;4955879;28;20234;-73
2021/12/24 12:09:10;;;;;;;2.53;1.10;;;;;;;;;;4955461;29;20194;-73
2021/12/24 12:11:45;;;;;;;0.30;0.30;;;;;;;;;;4953189;28;20725;-73
2021/12/24 12:14:25;;;;;;;0.20;0.20;;;;;;;;;;4950850;29;20206;-74
2021/12/24 12:17:06;;;;;;;0.20;0.20;;;;;;;;;;4948701;29;20227;-74
2021/12/24 12:19:47;;;;;;;1.03;0.33;;;;;;;;;;4955099;29;20216;-73
2021/12/24 12:22:30;;;;;;;0.30;0.30;;;;;;;;;;4955599;29;20238;-75
2021/12/24 12:25:04;;;;;;;0.37;0.37;;;;;;;;;;4955628;28;20202;-75
2021/12/24 12:27:45;;;;;;;0.40;0.40;;;;;;;;;;4949895;29;20609;-74
2021/12/24 12:30:30;;;;;;;0.67;0.67;;;;;;;;;;4953476;28;20214;-74
2021/12/24 12:33:11;;;;;;;0.53;0.53;;;;;;;;;;4946480;29;20206;-74
2021/12/24 12:35:48;;;;;;;0.47;0.47;;;;;;;;;;4949319;28;20286;-74
2021/12/24 12:38:25;;;;;;;0.47;0.47;;;;;;;;;;4948847;28;20305;-75
2021/12/24 12:41:12;;;;;;;0.40;0.40;;;;;;;;;;4953805;28;20210;-75
2021/12/24 12:43:43;;;;;;;0.23;0.23;;;;;;;;;;4954312;29;20214;-75
2021/12/24 12:46:20;;;;;;;0.20;0.20;;;;;;;;;;4953372;29;20226;-75
2021/12/24 12:49:16;;;;;;;0.20;0.20;;;;;;;;;;4948498;29;20265;-74
2021/12/24 12:51:58;;;;;;;0.13;0.13;;;;;;;;;;4952357;28;20218;-74
2021/12/24 12:54:42;;;;;;;0.20;0.20;;;;;;;;;;4947936;28;20202;-73
2021/12/24 12:57:20;;;;;;;0.20;0.20;;;;;;;;;;4935322;29;20869;-74
2021/12/24 13:00:10;;;;;;;0.20;0.20;;;;;;;;;;4952881;28;20210;-74
2021/12/24 13:03:06;;;;;;;0.20;0.20;;;;;;;;;;4940980;29;20606;-74
2021/12/24 13:05:54;;;;;;;0.30;0.30;;;;;;;;;;4946884;28;20203;-74
2021/12/24 13:08:30;;;;;;;0.30;0.30;;;;;;;;;;4947855;29;20260;-76
2021/12/24 13:11:01;;;;;;;0.23;0.23;;;;;;;;;;4953700;29;20639;-73
2021/12/24 13:13:32;;;;;;;0.60;0.30;;;;;;;;;;4952508;28;20306;-73
2021/12/24 13:16:05;;;;;;;0.30;0.30;;;;;;;;;;4960459;28;20207;-74
2021/12/24 13:18:47;;;;;;;0.27;0.27;;;;;;;;;;4952119;29;20210;-73
2021/12/24 13:24:14;;;;;;;0.10;0.10;;;;;;;;;;4954727;29;20244;-74
2021/12/24 13:26:44;;;;;;;0.10;0.10;;;;;;;;;;4954590;28;20234;-74
2021/12/24 13:29:16;;;;;;;0.20;0.20;;;;;;;;;;4954168;29;20729;-74
2021/12/24 13:31:52;;;;;;;0.00;0.00;;;;;;;;;;4954516;28;20201;-73
2021/12/24 13:34:24;;;;;;;0.10;0.10;;;;;;;;;;4946125;29;20645;-73
2021/12/24 13:37:00;;;;;;;0.20;0.20;;;;;;;;;;4953899;28;20242;-73
2021/12/24 13:39:31;;;;;;;0.10;0.10;;;;;;;;;;4954591;29;20207;-73
2021/12/24 13:42:04;;;;;;;0.40;0.40;;;;;;;;;;4955190;29;20212;-74
2021/12/24 13:44:34;;;;;;;0.20;0.20;;;;;;;;;;4950571;28;20264;-73
2021/12/24 13:47:05;;;;;;;0.40;0.40;;;;;;;;;;4949708;28;20290;-73
2021/12/24 13:49:45;;;;;;;0.37;0.37;;;;;;;;;;4954710;28;20642;-73
2021/12/24 13:55:01;;;;;;;0.67;0.67;;;;;;;;;;4957658;29;20194;-74
2021/12/24 13:57:29;;;;;;;0.33;0.33;;;;;;;;;;4958229;28;20215;-73
2021/12/24 13:59:59;;;;;;;0.97;0.97;;;;;;;;;;4958213;28;20244;-73
2021/12/24 14:02:27;;;;;;;0.53;0.53;;;;;;;;;;4958524;29;20257;-73
2021/12/24 14:05:05;;;;;;;0.40;0.40;;;;;;;;;;4958141;28;20671;-72
2021/12/24 14:07:33;;;;;;;0.77;0.77;;;;;;;;;;4957940;28;20233;-73
2021/12/24 14:10:17;;;;;;;0.50;0.50;;;;;;;;;;4957956;28;20274;-72
2021/12/24 14:12:46;;;;;;;0.43;0.43;;;;;;;;;;4946870;29;20260;-72
2021/12/24 14:15:16;;;;;;;0.23;0.23;;;;;;;;;;4944185;29;20247;-73
2021/12/24 14:18:09;;;;;;;0.20;0.20;;;;;;;;;;4958281;28;20218;-73
2021/12/24 14:21:44;;;;;;;0.30;0.30;;;;;;;;;;4948216;29;20676;-73
2021/12/24 14:23:41;;;;;;;0.23;0.23;;;;;;;;;;4950237;29;20206;-74
2021/12/24 14:26:11;;;;;;;0.47;0.43;;;;;;;;;;4957009;29;20260;-74
2021/12/24 14:28:50;;;;;;;0.33;0.33;;;;;;;;;;4954245;29;20229;-73
2021/12/24 14:31:18;;;;;;;0.37;0.37;;;;;;;;;;4954493;29;20641;-74
2021/12/24 14:33:48;;;;;;;0.33;0.33;;;;;;;;;;4958073;29;20248;-72
2021/12/24 14:36:20;;;;;;;3.30;2.57;;;;;;;;;;4957674;28;20199;-74
2021/12/24 14:38:48;;;;;;;0.40;0.40;;;;;;;;;;4957312;29;20664;-73
2021/12/24 14:41:19;;;;;;;0.73;0.73;;;;;;;;;;4944340;28;20267;-74
2021/12/24 14:43:48;;;;;;;0.43;0.43;;;;;;;;;;4601609;28;10000215;-74
2021/12/24 14:46:20;;;;;;;0.57;0.33;;;;;;;;;;4951214;28;20839;-72
2021/12/24 14:48:50;;;;;;;0.40;0.40;;;;;;;;;;4951075;29;20235;-73
2021/12/24 14:51:30;;;;;;;0.53;0.53;;;;;;;;;;4945357;28;20221;-73
2021/12/24 14:54:05;;;;;;;0.60;0.60;;;;;;;;;;4947610;28;20207;-74
2021/12/24 14:56:38;;;;;;;0.43;0.43;;;;;;;;;;4949181;29;20341;-74
2021/12/24 14:59:06;;;;;;;1.50;1.30;;;;;;;;;;4945489;28;20211;-74
2021/12/24 15:01:42;;;;;;;1.50;1.40;;;;;;;;;;4946821;29;20208;-73
2021/12/24 15:04:13;;;;;;;1.10;1.00;;;;;;;;;;4947035;29;20212;-73
2021/12/24 15:06:48;;;;;;;0.60;0.60;;;;;;;;;;4949013;29;20886;-74
2021/12/24 15:09:21;;;;;;;0.57;0.57;;;;;;;;;;4947626;29;20269;-74
2021/12/24 15:11:53;;;;;;;0.57;0.57;;;;;;;;;;4948234;28;20224;-75
2021/12/24 15:14:27;;;;;;;0.53;0.40;;;;;;;;;;4940979;29;20207;-73
2021/12/24 15:16:56;;;;;;;0.40;0.40;;;;;;;;;;4950687;29;20275;-74
2021/12/24 15:19:24;;;;;;;0.63;0.50;;;;;;;;;;4952483;29;20206;-71
2021/12/24 15:21:53;;;;;;;0.57;0.57;;;;;;;;;;4943080;28;20300;-71
2021/12/24 15:24:21;;;;;;;0.57;0.57;;;;;;;;;;4943149;28;20201;-72
2021/12/24 15:26:51;;;;;;;0.60;0.53;;;;;;;;;;4938233;29;20235;-70
2021/12/24 15:29:20;;;;;;;0.57;0.57;;;;;;;;;;4954018;28;20299;-71
2021/12/24 15:31:48;;;;;;;0.57;0.57;;;;;;;;;;4953495;28;20217;-71
2021/12/24 15:34:17;;;;;;;0.73;0.73;;;;;;;;;;4944001;29;20200;-71
2021/12/24 15:36:45;;;;;;;1.00;0.87;;;;;;;;;;4949245;29;20231;-70
2021/12/24 15:39:13;;;;;;;1.17;1.07;;;;;;;;;;4946163;29;20216;-70
2021/12/24 15:41:46;;;;;;;1.17;1.07;;;;;;;;;;4950792;29;20276;-70
2021/12/24 15:44:16;;;;;;;1.33;0.93;;;;;;;;;;4950941;28;20770;-70
2021/12/24 15:46:46;;;;;;;0.97;0.77;;;;;;;;;;4952171;29;20307;-71
2021/12/24 15:49:15;;;;;;;2.07;1.13;;;;;;;;;;4949468;29;20227;-73
2021/12/24 15:51:44;;;;;;;1.03;0.93;;;;;;;;;;4947844;28;20267;-75
2021/12/24 15:54:30;;;;;;;1.40;1.00;;;;;;;;;;4950457;28;20210;-74
2021/12/24 15:56:58;;;;;;;1.13;0.93;;;;;;;;;;4950488;28;20228;-73
2021/12/24 15:59:31;;;;;;;0.63;0.63;;;;;;;;;;4942647;29;20734;-74
2021/12/24 16:02:00;;;;;;;0.93;0.93;;;;;;;;;;4945141;29;20613;-73
2021/12/24 16:04:29;;;;;;;1.30;1.20;;;;;;;;;;4937633;28;20231;-72
2021/12/24 16:06:57;;;;;;;1.07;0.97;;;;;;;;;;4953558;29;20236;-73
2021/12/24 16:09:26;;;;;;;0.77;0.77;;;;;;;;;;4947450;28;20234;-73
2021/12/24 16:11:54;;;;;;;1.40;1.17;;;;;;;;;;4952908;28;20210;-73
2021/12/24 16:14:22;;;;;;;1.07;0.97;;;;;;;;;;4952471;28;20223;-73
2021/12/24 16:16:53;;;;;;;0.97;0.93;;;;;;;;;;4940587;29;20227;-73
2021/12/24 16:19:22;;;;;;;1.23;1.13;;;;;;;;;;4942990;29;20208;-73
2021/12/24 16:21:52;;;;;;;1.43;1.33;;;;;;;;;;4945199;29;20260;-73
2021/12/24 16:24:21;;;;;;;1.20;1.10;;;;;;;;;;4940884;29;20204;-73
2021/12/24 16:26:49;;;;;;;1.33;1.23;;;;;;;;;;4943226;29;20237;-73
2021/12/24 16:29:19;;;;;;;1.40;1.30;;;;;;;;;;4948837;29;20214;-72